createdAt,value
2018-11-01T00:00:22.807Z,101419.94
2018-11-01T00:02:51.169Z,101420.92
2018-11-01T00:05:19.564Z,101417.83
2018-11-01T00:07:47.936Z,101412.91
2018-11-01T00:10:16.294Z,101406.23
2018-11-01T00:12:44.968Z,101400.69
2018-11-01T00:15:14.385Z,101393.55
2018-11-01T00:17:42.735Z,101388.80
2018-11-01T00:20:12.797Z,101380.73
2018-11-01T00:22:41.580Z,101376.82
2018-11-01T00:25:11.377Z,101371.84
2018-11-01T00:27:40.074Z,101371.48
2018-11-01T00:30:09.356Z,101373.34
2018-11-01T00:32:37.724Z,101370.25
2018-11-01T00:35:06.553Z,101365.78
2018-11-01T00:37:34.929Z,101355.09
2018-11-01T00:40:03.501Z,101346.20
2018-11-01T00:42:31.884Z,101343.03
2018-11-01T00:45:00.238Z,101346.16
2018-11-01T00:47:28.554Z,101345.81
2018-11-01T00:49:56.913Z,101349.41
2018-11-01T00:52:25.266Z,101352.89
2018-11-01T00:54:53.722Z,101352.48
2018-11-01T00:57:22.097Z,101350.22
2018-11-01T00:59:51.383Z,101357.77
2018-11-01T01:02:19.780Z,101353.82
2018-11-01T01:04:48.124Z,101357.83
2018-11-01T01:07:16.492Z,101356.97
2018-11-01T01:09:44.829Z,101353.41
2018-11-01T01:12:13.173Z,101358.80
2018-11-01T01:14:41.502Z,101357.12
2018-11-01T01:17:09.876Z,101355.42
2018-11-01T01:19:38.217Z,101347.47
2018-11-01T01:22:06.563Z,101346.55
2018-11-01T01:24:34.896Z,101340.86
2018-11-01T01:27:03.220Z,101334.18
2018-11-01T01:29:31.570Z,101328.95
2018-11-01T01:31:59.905Z,101329.91
2018-11-01T01:34:28.264Z,101318.02
2018-11-01T01:36:56.615Z,101316.72
2018-11-01T01:39:24.956Z,101311.86
2018-11-01T01:41:53.293Z,101315.34
2018-11-01T01:44:21.607Z,101303.44
2018-11-01T01:46:49.993Z,101303.09
2018-11-01T01:49:18.336Z,101302.20
2018-11-01T01:51:46.689Z,101307.66
2018-11-01T01:54:15.368Z,101314.63
2018-11-01T01:56:43.729Z,101311.95
2018-11-01T01:59:12.074Z,101310.67
2018-11-01T02:01:40.422Z,101305.28
2018-11-01T02:04:08.776Z,101300.00
2018-11-01T02:06:37.108Z,101296.51
2018-11-01T02:09:10.972Z,101286.36
2018-11-01T02:11:40.547Z,101280.19
2018-11-01T02:14:08.985Z,101274.90
2018-11-01T02:16:37.334Z,101273.11
2018-11-01T02:19:06.130Z,101272.70
2018-11-01T02:21:34.511Z,101273.11
2018-11-01T02:24:02.845Z,101272.76
2018-11-01T02:26:31.181Z,101270.91
2018-11-01T02:28:59.525Z,101268.76
2018-11-01T02:31:27.945Z,101265.67
2018-11-01T02:33:56.286Z,101263.05
2018-11-01T02:36:24.625Z,101251.56
2018-11-01T02:38:52.966Z,101243.04
2018-11-01T02:41:21.327Z,101243.50
2018-11-01T02:43:49.775Z,101231.56
2018-11-01T02:46:18.120Z,101234.28
2018-11-01T02:48:46.569Z,101235.66
2018-11-01T02:51:14.918Z,101236.55
2018-11-01T02:53:43.257Z,101231.20
2018-11-01T02:56:11.599Z,101227.30
2018-11-01T02:58:39.944Z,101235.36
2018-11-01T03:01:08.293Z,101228.53
2018-11-01T03:03:36.702Z,101228.06
2018-11-01T03:06:05.410Z,101234.73
2018-11-01T03:08:34.457Z,101238.48
2018-11-01T03:11:02.778Z,101239.31
2018-11-01T03:13:31.099Z,101242.58
2018-11-01T03:15:59.438Z,101249.92
2018-11-01T03:18:27.767Z,101250.90
2018-11-01T03:20:56.092Z,101246.02
2018-11-01T03:23:24.413Z,101248.17
2018-11-01T03:25:52.750Z,101236.89
2018-11-01T03:28:21.078Z,101218.59
2018-11-01T03:30:49.406Z,101203.56
2018-11-01T03:33:17.727Z,101214.13
2018-11-01T03:35:46.072Z,101222.12
2018-11-01T03:38:14.465Z,101216.33
2018-11-01T03:40:42.767Z,101210.98
2018-11-01T03:43:11.099Z,101206.98
2018-11-01T03:45:39.451Z,101210.22
2018-11-01T03:48:07.768Z,101211.45
2018-11-01T03:57:36.003Z,101208.08
2018-11-01T04:00:05.258Z,101204.94
2018-11-01T04:02:33.588Z,101196.99
2018-11-01T04:05:01.914Z,101185.50
2018-11-01T04:07:30.263Z,101187.25
2018-11-01T04:09:58.619Z,101178.33
2018-11-01T04:12:27.030Z,101175.87
2018-11-01T04:14:55.456Z,101172.69
2018-11-01T04:17:23.794Z,101166.02
2018-11-01T04:19:52.124Z,101171.92
2018-11-01T04:22:20.443Z,101163.00
2018-11-01T04:24:48.783Z,101171.86
2018-11-01T04:27:17.111Z,101170.02
2018-11-01T04:29:45.465Z,101171.86
2018-11-01T04:32:13.813Z,101163.45
2018-11-01T04:34:42.153Z,101163.45
2018-11-01T04:37:10.473Z,101166.59
2018-11-01T04:39:38.816Z,101158.95
2018-11-01T04:42:07.165Z,101157.30
2018-11-01T04:44:35.604Z,101151.92
2018-11-01T04:47:03.924Z,101149.72
2018-11-01T04:49:32.292Z,101145.41
2018-11-01T04:52:00.891Z,101152.94
2018-11-01T04:54:29.261Z,101160.03
2018-11-01T04:56:57.606Z,101163.16
2018-11-01T04:59:25.960Z,101160.63
2018-11-01T05:01:54.365Z,101153.16
2018-11-01T05:04:22.677Z,101154.06
2018-11-01T05:06:51.023Z,101151.87
2018-11-01T05:09:19.356Z,101147.92
2018-11-01T05:11:47.707Z,101137.36
2018-11-01T05:14:16.023Z,101132.08
2018-11-01T05:16:44.368Z,101126.08
2018-11-01T05:19:12.874Z,101136.38
2018-11-01T05:21:41.209Z,101139.35
2018-11-01T05:24:09.526Z,101135.91
2018-11-01T05:26:37.859Z,101147.95
2018-11-01T05:29:06.184Z,101144.27
2018-11-01T05:31:34.506Z,101151.76
2018-11-01T05:34:02.819Z,101162.36
2018-11-01T05:36:33.301Z,101171.70
2018-11-01T05:39:01.638Z,101179.23
2018-11-01T05:41:29.973Z,101187.27
2018-11-01T05:43:58.301Z,101186.44
2018-11-01T05:46:26.624Z,101178.00
2018-11-01T05:48:54.950Z,101169.13
2018-11-01T05:51:23.289Z,101155.80
2018-11-01T05:53:51.624Z,101141.66
2018-11-01T05:56:19.940Z,101130.63
2018-11-01T05:58:48.270Z,101131.05
2018-11-01T06:01:20.759Z,101128.02
2018-11-01T06:03:49.105Z,101127.55
2018-11-01T06:06:17.456Z,101117.05
2018-11-01T06:08:46.160Z,101122.84
2018-11-01T06:11:14.546Z,101127.70
2018-11-01T06:13:42.883Z,101128.57
2018-11-01T06:16:11.206Z,101125.54
2018-11-01T06:18:39.590Z,101119.20
2018-11-01T06:21:07.911Z,101110.34
2018-11-01T06:23:36.239Z,101099.78
2018-11-01T06:26:04.567Z,101093.58
2018-11-01T06:28:32.888Z,101099.83
2018-11-01T06:31:01.665Z,101096.75
2018-11-01T06:33:30.027Z,101098.48
2018-11-01T06:36:01.504Z,101096.53
2018-11-01T06:38:29.827Z,101096.29
2018-11-01T06:40:58.176Z,101102.84
2018-11-01T06:43:26.520Z,101102.77
2018-11-01T06:45:54.840Z,101101.32
2018-11-01T06:48:23.171Z,101098.67
2018-11-01T06:50:51.504Z,101099.58
2018-11-01T06:53:19.864Z,101102.05
2018-11-01T06:55:47.624Z,101098.56
2018-11-01T06:58:16.001Z,101095.33
2018-11-01T07:00:44.316Z,101085.04
2018-11-01T07:03:12.629Z,101087.59
2018-11-01T07:05:40.974Z,101082.98
2018-11-01T07:08:09.285Z,101078.52
2018-11-01T07:10:37.633Z,101085.89
2018-11-01T07:13:06.206Z,101081.83
2018-11-01T07:15:34.520Z,101082.25
2018-11-01T07:18:02.918Z,101073.27
2018-11-01T07:20:31.249Z,101071.94
2018-11-01T07:22:59.572Z,101065.68
2018-11-01T07:25:27.949Z,101058.67
2018-11-01T07:27:56.217Z,101072.92
2018-11-01T07:30:24.530Z,101076.77
2018-11-01T07:32:52.935Z,101072.66
2018-11-01T07:35:21.225Z,101072.83
2018-11-01T07:37:49.703Z,101069.68
2018-11-01T07:40:18.657Z,101068.11
2018-11-01T07:42:47.382Z,101062.93
2018-11-01T07:45:16.027Z,101064.73
2018-11-01T07:47:45.018Z,101058.98
2018-11-01T07:50:14.121Z,101045.66
2018-11-01T07:52:42.812Z,101041.28
2018-11-01T07:55:13.637Z,101026.45
2018-11-01T07:57:41.992Z,101024.56
2018-11-01T08:00:13.372Z,101020.37
2018-11-01T08:02:42.259Z,101011.05
2018-11-01T08:05:11.553Z,100989.48
2018-11-01T08:07:40.350Z,100984.09
2018-11-01T08:10:10.858Z,100990.32
2018-11-01T08:12:39.197Z,101007.41
2018-11-01T08:15:10.081Z,101012.11
2018-11-01T08:17:38.416Z,101006.97
2018-11-01T08:20:08.338Z,101006.25
2018-11-01T08:22:36.588Z,100997.49
2018-11-01T08:25:05.219Z,101004.28
2018-11-01T08:27:33.725Z,101013.25
2018-11-01T08:30:02.206Z,100998.41
2018-11-01T08:32:30.547Z,101004.77
2018-11-01T08:34:58.910Z,101009.64
2018-11-01T08:37:27.241Z,101002.28
2018-11-01T08:39:55.755Z,100989.67
2018-11-01T08:42:24.545Z,100982.68
2018-11-01T08:44:52.866Z,100991.78
2018-11-01T08:47:21.213Z,100997.19
2018-11-01T08:49:49.580Z,101002.41
2018-11-01T08:52:17.937Z,101007.67
2018-11-01T08:54:46.251Z,101003.16
2018-11-01T08:57:15.307Z,100996.17
2018-11-01T08:59:43.883Z,100992.29
2018-11-01T09:02:12.223Z,100974.47
2018-11-01T09:04:40.553Z,100967.98
2018-11-01T09:07:08.894Z,100966.08
2018-11-01T09:09:37.224Z,100966.38
2018-11-01T09:12:05.600Z,100975.98
2018-11-01T09:14:34.009Z,100984.78
2018-11-01T09:17:02.293Z,100980.80
2018-11-01T09:19:30.653Z,100977.28
2018-11-01T09:21:58.995Z,100965.48
2018-11-01T09:24:27.314Z,100984.28
2018-11-01T09:26:55.682Z,100965.50
2018-11-01T09:29:24.027Z,100975.08
2018-11-01T09:31:52.380Z,100981.82
2018-11-01T09:34:20.714Z,100971.01
2018-11-01T09:36:49.093Z,100967.95
2018-11-01T09:39:17.433Z,100975.86
2018-11-01T09:41:45.771Z,100974.12
2018-11-01T09:44:14.135Z,100960.52
2018-11-01T09:46:42.647Z,100959.36
2018-11-01T09:49:10.855Z,100951.34
2018-11-01T09:51:39.210Z,100945.02
2018-11-01T09:54:07.540Z,100938.14
2018-11-01T09:56:35.996Z,100942.63
2018-11-01T09:59:05.068Z,100939.67
2018-11-01T10:01:33.408Z,100935.42
2018-11-01T10:04:01.781Z,100935.44
2018-11-01T10:06:30.113Z,100940.89
2018-11-01T10:08:58.485Z,100934.33
2018-11-01T10:11:26.799Z,100932.80
2018-11-01T10:13:55.163Z,100931.25
2018-11-01T10:16:23.637Z,100913.20
2018-11-01T10:18:51.992Z,100915.95
2018-11-01T10:21:21.020Z,100917.55
2018-11-01T10:23:49.305Z,100913.76
2018-11-01T10:26:17.655Z,100912.66
2018-11-01T10:28:45.990Z,100910.88
2018-11-01T10:31:14.363Z,100903.84
2018-11-01T10:33:43.219Z,100898.95
2018-11-01T10:36:11.526Z,100887.94
2018-11-01T10:38:39.886Z,100883.11
2018-11-01T10:41:08.261Z,100879.02
2018-11-01T10:43:36.652Z,100873.20
2018-11-01T10:46:05.157Z,100868.92
2018-11-01T10:48:33.517Z,100860.62
2018-11-01T10:51:01.948Z,100869.41
2018-11-01T10:53:30.885Z,100873.45
2018-11-01T10:55:59.204Z,100876.67
2018-11-01T10:58:27.527Z,100878.59
2018-11-01T11:01:01.585Z,100860.67
2018-11-01T11:03:29.919Z,100861.48
2018-11-01T11:05:58.264Z,100865.73
2018-11-01T11:08:26.617Z,100857.56
2018-11-01T11:10:54.958Z,100842.20
2018-11-01T11:13:23.284Z,100835.09
2018-11-01T11:15:51.619Z,100836.20
2018-11-01T11:18:19.998Z,100834.17
2018-11-01T11:20:48.576Z,100832.64
2018-11-01T11:23:16.713Z,100828.97
2018-11-01T11:25:45.048Z,100839.02
2018-11-01T11:28:13.373Z,100830.19
2018-11-01T11:30:41.899Z,100817.50
2018-11-01T11:33:10.053Z,100820.43
2018-11-01T11:35:38.452Z,100818.89
2018-11-01T11:38:06.737Z,100810.09
2018-11-01T11:40:35.066Z,100818.84
2018-11-01T11:43:03.383Z,100809.41
2018-11-01T11:45:31.720Z,100803.98
2018-11-01T11:48:00.024Z,100803.55
2018-11-01T11:50:28.329Z,100802.87
2018-11-01T11:52:56.644Z,100809.11
2018-11-01T11:55:24.964Z,100815.52
2018-11-01T11:57:53.308Z,100819.45
2018-11-01T12:00:21.620Z,100818.77
2018-11-01T12:02:49.960Z,100813.39
2018-11-01T12:05:18.318Z,100820.11
2018-11-01T12:07:46.656Z,100815.52
2018-11-01T12:10:15.082Z,100803.50
2018-11-01T12:12:43.403Z,100808.94
2018-11-01T12:15:11.776Z,100806.28
2018-11-01T12:17:40.135Z,100807.30
2018-11-01T12:20:10.325Z,100820.11
2018-11-01T12:22:38.661Z,100816.70
2018-11-01T12:25:07.837Z,100812.10
2018-11-01T12:27:36.352Z,100808.79
2018-11-01T12:30:05.320Z,100807.45
2018-11-01T12:32:33.682Z,100803.66
2018-11-01T12:35:02.032Z,100810.77
2018-11-01T12:37:30.430Z,100810.37
2018-11-01T12:39:58.816Z,100818.16
2018-11-01T12:42:27.143Z,100814.56
2018-11-01T12:44:55.587Z,100819.22
2018-11-01T12:47:23.900Z,100820.27
2018-11-01T12:49:52.308Z,100807.20
2018-11-01T12:52:20.590Z,100805.08
2018-11-01T12:54:48.934Z,100800.70
2018-11-01T12:57:17.288Z,100802.20
2018-11-01T12:59:45.626Z,100781.50
2018-11-01T13:02:13.992Z,100776.51
2018-11-01T13:04:42.308Z,100764.41
2018-11-01T13:07:10.641Z,100768.20
2018-11-01T13:09:38.971Z,100777.38
2018-11-01T13:12:07.316Z,100768.38
2018-11-01T13:14:35.681Z,100762.91
2018-11-01T13:17:03.999Z,100752.69
2018-11-01T13:19:32.308Z,100745.42
2018-11-01T13:22:00.623Z,100738.45
2018-11-01T13:24:28.959Z,100738.45
2018-11-01T13:26:57.415Z,100740.19
2018-11-01T13:29:25.801Z,100730.15
2018-11-01T13:31:54.116Z,100718.82
2018-11-01T13:34:22.449Z,100719.77
2018-11-01T13:36:50.945Z,100722.47
2018-11-01T13:39:19.281Z,100713.38
2018-11-01T13:41:47.681Z,100711.70
2018-11-01T13:44:15.995Z,100682.92
2018-11-01T13:46:44.307Z,100675.62
2018-11-01T13:49:12.681Z,100677.36
2018-11-01T13:51:41.003Z,100686.48
2018-11-01T13:54:09.349Z,100687.73
2018-11-01T13:56:37.820Z,100692.63
2018-11-01T13:59:06.548Z,100704.83
2018-11-01T14:01:34.880Z,100710.59
2018-11-01T14:04:03.205Z,100715.73
2018-11-01T14:06:31.519Z,100717.66
2018-11-01T14:08:59.844Z,100704.20
2018-11-01T14:11:28.426Z,100711.47
2018-11-01T14:13:57.161Z,100716.55
2018-11-01T14:16:25.107Z,100712.75
2018-11-01T14:18:54.154Z,100693.92
2018-11-01T14:21:22.476Z,100696.13
2018-11-01T14:23:50.823Z,100685.43
2018-11-01T14:26:19.159Z,100686.39
2018-11-01T14:28:47.508Z,100672.94
2018-11-01T14:31:16.038Z,100669.92
2018-11-01T14:33:44.205Z,100681.16
2018-11-01T14:36:12.553Z,100691.14
2018-11-01T14:38:40.876Z,100706.23
2018-11-01T14:41:09.224Z,100715.20
2018-11-01T14:43:37.693Z,100720.02
2018-11-01T14:46:06.076Z,100697.72
2018-11-01T14:48:34.407Z,100694.70
2018-11-01T14:51:02.721Z,100705.37
2018-11-01T14:53:31.513Z,100711.17
2018-11-01T14:56:00.283Z,100712.03
2018-11-01T14:58:28.822Z,100703.10
2018-11-01T15:00:56.074Z,100706.71
2018-11-01T15:03:24.409Z,100704.98
2018-11-01T15:05:52.772Z,100703.64
2018-11-01T15:08:21.103Z,100719.39
2018-11-01T15:10:49.476Z,100708.23
2018-11-01T15:13:17.879Z,100693.89
2018-11-01T15:15:46.169Z,100686.88
2018-11-01T15:18:14.503Z,100702.05
2018-11-01T15:20:42.824Z,100685.05
2018-11-01T15:23:11.177Z,100690.09
2018-11-01T15:25:39.519Z,100684.90
2018-11-01T15:28:07.895Z,100681.25
2018-11-01T15:30:36.209Z,100675.55
2018-11-01T15:33:04.585Z,100681.55
2018-11-01T15:35:32.911Z,100672.14
2018-11-01T15:38:01.237Z,100661.86
2018-11-01T15:40:29.589Z,100656.24
2018-11-01T15:42:57.921Z,100661.71
2018-11-01T15:45:26.264Z,100660.52
2018-11-01T15:47:54.623Z,100661.71
2018-11-01T15:50:22.994Z,100654.75
2018-11-01T15:52:51.380Z,100654.42
2018-11-01T15:55:19.732Z,100657.73
2018-11-01T15:57:48.077Z,100661.23
2018-11-01T16:00:16.417Z,100664.45
2018-11-01T16:02:45.495Z,100671.66
2018-11-01T16:05:14.733Z,100665.89
2018-11-01T16:07:43.088Z,100656.14
2018-11-01T16:10:12.182Z,100652.27
2018-11-01T16:12:40.913Z,100655.91
2018-11-01T16:15:11.740Z,100667.05
2018-11-01T16:17:40.521Z,100664.59
2018-11-01T16:20:09.433Z,100664.68
2018-11-01T16:22:38.314Z,100672.75
2018-11-01T16:25:06.989Z,100677.40
2018-11-01T16:27:35.678Z,100674.63
2018-11-01T16:30:04.035Z,100673.84
2018-11-01T16:32:32.375Z,100673.03
2018-11-01T16:35:00.759Z,100663.23
2018-11-01T16:37:29.396Z,100659.92
2018-11-01T16:39:57.882Z,100658.09
2018-11-01T16:42:26.433Z,100670.19
2018-11-01T16:44:54.760Z,100661.88
2018-11-01T16:47:23.101Z,100666.78
2018-11-01T16:49:51.470Z,100667.79
2018-11-01T16:52:19.820Z,100674.06
2018-11-01T16:54:48.161Z,100674.12
2018-11-01T16:57:16.523Z,100674.69
2018-11-01T16:59:44.907Z,100672.47
2018-11-01T17:02:13.231Z,100663.98
2018-11-01T17:04:41.580Z,100664.16
2018-11-01T17:07:10.152Z,100669.11
2018-11-01T17:09:38.548Z,100673.63
2018-11-01T17:12:06.894Z,100665.65
2018-11-01T17:14:35.709Z,100670.63
2018-11-01T17:17:04.119Z,100658.12
2018-11-01T17:19:32.566Z,100661.67
2018-11-01T17:22:00.953Z,100661.67
2018-11-01T17:24:29.280Z,100667.13
2018-11-01T17:26:58.215Z,100665.79
2018-11-01T17:29:26.802Z,100660.03
2018-11-01T17:31:55.205Z,100662.62
2018-11-01T17:34:23.589Z,100654.66
2018-11-01T17:36:51.933Z,100653.70
2018-11-01T17:39:20.272Z,100654.66
2018-11-01T17:41:48.668Z,100657.25
2018-11-01T17:44:17.013Z,100662.23
2018-11-01T17:46:45.463Z,100660.03
2018-11-01T17:49:13.832Z,100668.86
2018-11-01T17:51:42.182Z,100665.02
2018-11-01T17:54:15.005Z,100665.54
2018-11-01T17:56:44.292Z,100673.73
2018-11-01T17:59:12.672Z,100679.53
2018-11-01T18:01:41.057Z,100666.63
2018-11-01T18:04:10.052Z,100669.84
2018-11-01T18:06:38.450Z,100668.93
2018-11-01T18:09:09.179Z,100669.80
2018-11-01T18:11:37.547Z,100673.83
2018-11-01T18:14:06.222Z,100672.59
2018-11-01T18:16:34.808Z,100669.12
2018-11-01T18:19:03.186Z,100669.90
2018-11-01T18:21:31.581Z,100663.75
2018-11-01T18:23:59.994Z,100661.93
2018-11-01T18:26:28.323Z,100668.25
2018-11-01T18:28:57.209Z,100666.44
2018-11-01T18:31:25.535Z,100662.06
2018-11-01T18:33:53.918Z,100652.81
2018-11-01T18:36:22.501Z,100648.25
2018-11-01T18:38:50.849Z,100641.11
2018-11-01T18:41:19.224Z,100638.42
2018-11-01T18:43:47.575Z,100633.03
2018-11-01T18:46:15.982Z,100642.85
2018-11-01T18:48:44.540Z,100646.41
2018-11-01T18:51:13.344Z,100642.12
2018-11-01T18:53:41.785Z,100639.91
2018-11-01T18:56:10.300Z,100642.66
2018-11-01T18:58:38.793Z,100645.91
2018-11-01T19:01:07.212Z,100643.05
2018-11-01T19:03:35.547Z,100647.07
2018-11-01T19:06:04.522Z,100649.50
2018-11-01T19:08:32.917Z,100656.16
2018-11-01T19:11:01.252Z,100657.56
2018-11-01T19:13:29.609Z,100657.12
2018-11-01T19:15:58.135Z,100656.64
2018-11-01T19:18:26.614Z,100655.69
2018-11-01T19:20:54.964Z,100651.66
2018-11-01T19:23:23.296Z,100654.34
2018-11-01T19:25:51.624Z,100654.21
2018-11-01T19:28:19.959Z,100657.37
2018-11-01T19:30:48.332Z,100653.87
2018-11-01T19:33:16.751Z,100653.95
2018-11-01T19:35:45.092Z,100661.14
2018-11-01T19:38:13.429Z,100666.95
2018-11-01T19:40:41.825Z,100666.04
2018-11-01T19:43:10.156Z,100670.12
2018-11-01T19:45:38.505Z,100670.81
2018-11-01T19:48:07.046Z,100685.10
2018-11-01T19:50:35.340Z,100694.11
2018-11-01T19:53:03.715Z,100703.98
2018-11-01T19:55:32.063Z,100710.44
2018-11-01T19:58:00.401Z,100711.17
2018-11-01T20:00:28.725Z,100711.73
2018-11-01T20:02:57.101Z,100722.20
2018-11-01T20:05:25.449Z,100722.65
2018-11-01T20:07:53.774Z,100721.25
2018-11-01T20:10:22.532Z,100723.55
2018-11-01T20:12:50.736Z,100725.97
2018-11-01T20:15:19.070Z,100735.65
2018-11-01T20:17:47.409Z,100743.06
2018-11-01T20:20:15.793Z,100748.84
2018-11-01T20:22:45.318Z,100749.19
2018-11-01T20:25:13.709Z,100755.67
2018-11-01T20:27:42.202Z,100756.83
2018-11-01T20:30:13.621Z,100762.87
2018-11-01T20:32:42.829Z,100769.14
2018-11-01T20:35:12.647Z,100774.19
2018-11-01T20:37:41.348Z,100765.92
2018-11-01T20:40:09.813Z,100762.41
2018-11-01T20:42:38.384Z,100767.19
2018-11-01T20:45:08.013Z,100773.97
2018-11-01T20:47:36.360Z,100778.70
2018-11-01T20:50:05.485Z,100785.80
2018-11-01T20:52:33.974Z,100793.45
2018-11-01T20:55:02.320Z,100784.92
2018-11-01T20:57:30.723Z,100782.24
2018-11-01T20:59:59.157Z,100782.36
2018-11-01T21:02:27.509Z,100788.42
2018-11-01T21:04:55.994Z,100793.47
2018-11-01T21:07:24.385Z,100789.96
2018-11-01T21:09:52.763Z,100795.32
2018-11-01T21:12:21.140Z,100785.94
2018-11-01T21:14:49.547Z,100786.20
2018-11-01T21:17:17.866Z,100790.34
2018-11-01T21:19:46.313Z,100788.72
2018-11-01T21:22:15.532Z,100794.59
2018-11-01T21:24:44.118Z,100797.34
2018-11-01T21:27:12.474Z,100796.98
2018-11-01T21:29:40.856Z,100797.42
2018-11-01T21:32:09.780Z,100792.53
2018-11-01T21:34:38.579Z,100788.30
2018-11-01T21:37:07.140Z,100788.59
2018-11-01T21:39:35.497Z,100788.20
2018-11-01T21:42:04.331Z,100802.21
2018-11-01T21:44:32.737Z,100812.31
2018-11-01T21:47:01.384Z,100825.12
2018-11-01T21:49:29.754Z,100843.27
2018-11-01T21:51:58.108Z,100839.89
2018-11-01T21:54:26.442Z,100851.61
2018-11-01T21:56:54.861Z,100855.67
2018-11-01T21:59:23.191Z,100868.66
2018-11-01T22:01:51.711Z,100877.27
2018-11-01T22:04:20.075Z,100887.18
2018-11-01T22:06:48.416Z,100891.20
2018-11-01T22:09:16.766Z,100886.34
2018-11-01T22:11:45.141Z,100890.90
2018-11-01T22:14:13.486Z,100899.77
2018-11-01T22:16:41.885Z,100901.58
2018-11-01T22:19:10.275Z,100897.70
2018-11-01T22:21:38.624Z,100908.47
2018-11-01T22:24:07.144Z,100907.30
2018-11-01T22:26:35.520Z,100905.66
2018-11-01T22:29:03.886Z,100916.16
2018-11-01T22:31:32.239Z,100921.52
2018-11-01T22:34:00.613Z,100926.02
2018-11-01T22:36:28.990Z,100933.32
2018-11-01T22:38:57.318Z,100948.60
2018-11-01T22:41:26.311Z,100947.27
2018-11-01T22:43:54.649Z,100958.38
2018-11-01T22:46:22.983Z,100959.71
2018-11-01T22:48:51.381Z,100957.34
2018-11-01T22:51:19.736Z,100963.20
2018-11-01T22:53:48.174Z,100978.03
2018-11-01T22:56:16.479Z,100984.28
2018-11-01T22:58:44.894Z,100988.61
2018-11-01T23:01:13.268Z,100986.47
2018-11-01T23:03:42.532Z,100990.11
2018-11-01T23:06:10.888Z,100989.32
2018-11-01T23:08:40.090Z,101005.03
2018-11-01T23:11:08.469Z,101007.73
2018-11-01T23:13:37.287Z,101004.16
2018-11-01T23:16:06.040Z,101013.08
2018-11-01T23:18:34.380Z,101009.28
2018-11-01T23:21:02.728Z,101018.73
2018-11-01T23:23:31.058Z,101025.80
2018-11-01T23:25:59.456Z,101032.59
2018-11-01T23:28:28.027Z,101038.96
2018-11-01T23:30:56.367Z,101035.48
2018-11-01T23:33:24.724Z,101038.06
2018-11-01T23:35:53.161Z,101038.55
2018-11-01T23:38:26.937Z,101027.95
2018-11-01T23:41:00.639Z,101040.19
2018-11-01T23:43:34.372Z,101049.22
2018-11-01T23:46:08.073Z,101051.89
2018-11-01T23:48:35.567Z,101055.58
2018-11-01T23:51:14.751Z,101061.85
2018-11-01T23:53:52.730Z,101060.92
2018-11-01T23:56:21.310Z,101058.48
2018-11-01T23:58:49.656Z,101067.04
